Time;durP1;ratioP1;P1;durP2;ratioP2;P2;SDS_P1;SDS_P2;PMS_P1;PMS_P2;Temp;Humidity;BMP_temperature;BMP_pressure;BME280_temperature;BME280_humidity;BME280_pressure;Samples;Min_cycle;Max_cycle;Signal;HPM_P1;HPM_P2
2023/12/15 00:00:49;;;;;;;0.50;0.10;;;7.40;99.90;;;;;;4879847;29;20454;-72
2023/12/15 00:03:17;;;;;;;0.50;0.20;;;7.40;99.90;;;;;;4879784;29;20531;-73
2023/12/15 00:05:46;;;;;;;0.50;0.10;;;7.50;99.90;;;;;;4879697;29;20482;-74
2023/12/15 00:08:15;;;;;;;0.50;0.10;;;7.50;99.90;;;;;;4879817;29;20462;-73
2023/12/15 00:10:43;;;;;;;0.50;0.10;;;7.40;99.90;;;;;;4880190;29;20446;-74
2023/12/15 00:13:10;;;;;;;0.50;0.10;;;7.40;99.90;;;;;;4879621;29;20478;-73
2023/12/15 00:15:38;;;;;;;0.50;0.10;;;7.30;99.90;;;;;;4880021;29;20533;-73
2023/12/15 00:18:06;;;;;;;0.50;0.10;;;7.20;99.90;;;;;;4879872;29;20917;-73
2023/12/15 00:20:34;;;;;;;0.50;0.10;;;7.20;99.90;;;;;;4873225;29;20455;-73
2023/12/15 00:23:03;;;;;;;0.50;0.10;;;7.20;99.90;;;;;;4880030;29;20465;-73
2023/12/15 00:25:31;;;;;;;0.50;0.10;;;7.20;99.90;;;;;;4880076;29;20494;-73
2023/12/15 00:27:59;;;;;;;0.50;0.10;;;7.20;99.90;;;;;;4879820;29;20601;-74
2023/12/15 00:30:27;;;;;;;0.50;0.10;;;7.20;99.90;;;;;;4879865;29;20450;-74
2023/12/15 00:32:55;;;;;;;0.50;0.10;;;7.20;99.90;;;;;;4879653;29;20446;-74
2023/12/15 00:35:23;;;;;;;0.50;0.10;;;7.20;99.90;;;;;;4881115;29;20450;-74
2023/12/15 00:37:51;;;;;;;0.50;0.10;;;7.30;99.90;;;;;;4881043;29;20477;-74
2023/12/15 00:40:22;;;;;;;0.50;0.10;;;7.30;99.90;;;;;;4888106;29;20943;-74
2023/12/15 00:42:50;;;;;;;0.50;0.10;;;;;;;;;;4890565;29;20474;-74
2023/12/15 00:45:18;;;;;;;0.50;0.10;;;7.50;99.90;;;;;;4893257;29;20573;-73
2023/12/15 00:47:46;;;;;;;0.50;0.47;;;7.50;99.90;;;;;;4893472;29;20474;-73
2023/12/15 00:50:14;;;;;;;0.50;0.10;;;7.50;99.90;;;;;;4893395;29;20454;-73
2023/12/15 00:52:42;;;;;;;0.50;0.10;;;7.50;99.90;;;;;;4893904;29;20450;-74
2023/12/15 00:55:10;;;;;;;0.50;0.10;;;7.50;99.90;;;;;;4894147;29;20483;-73
2023/12/15 00:57:39;;;;;;;3.13;1.43;;;7.30;99.90;;;;;;4893594;29;20526;-73
2023/12/15 01:00:08;;;;;;;1.80;1.50;;;7.30;99.90;;;;;;4891624;29;20462;-73
2023/12/15 01:02:36;;;;;;;0.50;0.10;;;7.30;99.90;;;;;;4886378;29;20477;-73
2023/12/15 01:05:05;;;;;;;0.50;0.10;;;7.30;99.90;;;;;;4890875;29;20485;-73
2023/12/15 01:07:32;;;;;;;0.50;0.10;;;7.30;99.90;;;;;;4890438;29;20529;-73
2023/12/15 01:10:01;;;;;;;0.50;0.10;;;7.40;99.90;;;;;;4894425;29;20463;-73
2023/12/15 01:12:29;;;;;;;0.50;0.10;;;7.40;99.90;;;;;;4899445;29;20514;-73
2023/12/15 01:14:58;;;;;;;0.50;0.10;;;7.30;99.90;;;;;;4896718;29;20442;-73
2023/12/15 01:17:26;;;;;;;0.50;0.13;;;7.30;99.90;;;;;;4896379;29;20502;-74
2023/12/15 01:19:54;;;;;;;0.50;0.10;;;7.30;99.90;;;;;;4895589;29;20454;-73
2023/12/15 01:22:21;;;;;;;0.60;0.50;;;7.30;99.90;;;;;;4898869;29;20465;-73
2023/12/15 01:24:49;;;;;;;3.87;2.10;;;7.10;99.90;;;;;;4898153;29;20482;-72
2023/12/15 01:27:17;;;;;;;0.50;0.10;;;7.10;99.90;;;;;;4897628;29;20462;-72
2023/12/15 01:29:45;;;;;;;2.60;1.17;;;;;;;;;;4897398;29;20485;-74
2023/12/15 01:32:14;;;;;;;1.53;1.40;;;6.80;99.90;;;;;;4897079;29;20545;-72
2023/12/15 01:34:42;;;;;;;0.50;0.20;;;6.60;99.90;;;;;;4889180;29;20445;-72
2023/12/15 01:37:10;;;;;;;0.50;0.10;;;6.60;99.90;;;;;;4885902;29;20508;-73
2023/12/15 01:39:38;;;;;;;1.53;0.30;;;6.60;99.90;;;;;;4884663;29;20502;-73
2023/12/15 01:42:06;;;;;;;0.50;0.10;;;6.60;99.90;;;;;;4883761;29;20485;-73
2023/12/15 01:44:34;;;;;;;0.50;0.30;;;6.70;99.90;;;;;;4884514;29;20562;-75
2023/12/15 01:47:02;;;;;;;1.53;0.77;;;6.80;99.90;;;;;;4883468;29;20545;-74
2023/12/15 01:49:32;;;;;;;2.50;1.60;;;6.80;99.90;;;;;;4883238;29;20545;-72
2023/12/15 01:52:01;;;;;;;0.50;0.10;;;6.90;99.90;;;;;;4883357;29;20450;-75
2023/12/15 01:54:28;;;;;;;0.50;0.10;;;6.90;99.90;;;;;;4882510;29;20454;-73
2023/12/15 01:56:56;;;;;;;0.50;0.10;;;6.90;99.90;;;;;;4882111;29;20541;-74
2023/12/15 01:59:24;;;;;;;0.50;0.10;;;7.00;99.90;;;;;;4882700;29;20454;-73
2023/12/15 02:01:52;;;;;;;2.70;2.50;;;7.00;99.90;;;;;;4889417;29;20442;-73
2023/12/15 02:04:20;;;;;;;0.50;0.10;;;6.90;99.90;;;;;;4888634;29;20507;-73
2023/12/15 02:06:49;;;;;;;0.50;0.10;;;7.00;99.90;;;;;;4890595;29;20466;-74
2023/12/15 02:09:17;;;;;;;0.50;0.20;;;7.00;99.90;;;;;;4892541;29;20450;-74
2023/12/15 02:11:45;;;;;;;0.50;0.10;;;7.00;99.90;;;;;;4893882;29;20461;-71
2023/12/15 02:14:13;;;;;;;0.50;0.10;;;6.90;99.90;;;;;;4893588;29;20536;-73
2023/12/15 02:16:41;;;;;;;0.50;0.10;;;6.90;99.90;;;;;;4893624;29;20533;-73
2023/12/15 02:19:09;;;;;;;0.50;0.10;;;6.90;99.90;;;;;;4894310;29;20472;-72
2023/12/15 02:21:37;;;;;;;0.50;0.10;;;7.00;99.90;;;;;;4893411;29;20439;-72
2023/12/15 02:24:06;;;;;;;0.50;0.10;;;7.00;99.90;;;;;;4894031;29;20499;-73
2023/12/15 02:26:34;;;;;;;0.50;0.20;;;7.10;99.90;;;;;;4893995;29;20490;-73
2023/12/15 02:29:02;;;;;;;0.50;0.10;;;7.10;99.90;;;;;;4894704;29;20454;-73
2023/12/15 02:31:30;;;;;;;1.57;1.47;;;7.10;99.90;;;;;;4894291;29;20982;-73
2023/12/15 02:33:58;;;;;;;1.60;1.50;;;7.10;99.90;;;;;;4894105;29;20452;-73
2023/12/15 02:36:26;;;;;;;0.50;0.20;;;6.90;99.90;;;;;;4893564;29;20502;-73
2023/12/15 02:38:54;;;;;;;0.50;0.10;;;7.00;99.90;;;;;;4894571;29;20454;-73
2023/12/15 02:41:23;;;;;;;0.50;0.10;;;7.00;99.90;;;;;;4893235;29;20450;-73
2023/12/15 02:43:51;;;;;;;3.07;2.30;;;7.00;99.90;;;;;;4888253;29;20452;-73
2023/12/15 02:46:19;;;;;;;0.50;0.10;;;;;;;;;;4884131;29;20509;-73
2023/12/15 02:48:47;;;;;;;0.60;0.47;;;6.80;99.90;;;;;;4883959;29;20510;-73
2023/12/15 02:51:26;;;;;;;4.23;3.67;;;6.80;99.90;;;;;;4884184;29;20450;-73
2023/12/15 02:53:54;;;;;;;1.47;1.33;;;6.70;99.90;;;;;;4883824;29;20442;-73
2023/12/15 02:56:23;;;;;;;0.63;0.50;;;6.60;99.90;;;;;;4901197;23;20999;-76
2023/12/15 02:58:51;;;;;;;5.07;2.30;;;6.60;99.90;;;;;;4901207;29;20833;-76
2023/12/15 03:01:19;;;;;;;1.57;0.47;;;6.50;99.90;;;;;;4899324;29;20947;-75
2023/12/15 03:03:47;;;;;;;1.17;1.00;;;6.50;99.90;;;;;;4899098;29;20495;-75
2023/12/15 03:06:15;;;;;;;3.90;0.87;;;6.50;99.90;;;;;;4896453;29;20503;-75
2023/12/15 03:08:43;;;;;;;0.50;0.20;;;6.60;99.90;;;;;;4869652;29;21018;-76
2023/12/15 03:11:11;;;;;;;2.27;2.10;;;6.60;99.90;;;;;;4862713;29;20542;-75
2023/12/15 03:13:41;;;;;;;0.50;0.30;;;6.50;99.90;;;;;;4862558;29;20451;-76
2023/12/15 03:16:10;;;;;;;7.37;2.77;;;6.60;99.90;;;;;;4862389;29;20467;-76
2023/12/15 03:18:39;;;;;;;0.50;0.20;;;6.50;99.90;;;;;;4873077;29;20458;-76
2023/12/15 03:21:07;;;;;;;0.50;0.30;;;6.60;99.90;;;;;;4877517;29;20474;-77
2023/12/15 03:23:35;;;;;;;0.50;0.10;;;6.70;99.90;;;;;;4883048;29;20878;-75
2023/12/15 03:26:03;;;;;;;0.60;0.47;;;6.60;99.90;;;;;;4883015;29;20490;-76
2023/12/15 03:28:31;;;;;;;0.60;0.40;;;6.70;99.90;;;;;;4874929;29;20466;-74
2023/12/15 03:31:00;;;;;;;0.50;0.10;;;6.70;99.90;;;;;;4881047;29;20464;-77
2023/12/15 03:33:35;;;;;;;4.10;1.63;;;6.70;99.90;;;;;;4864479;29;20511;-75
2023/12/15 03:36:03;;;;;;;0.50;0.10;;;6.80;99.90;;;;;;4877631;29;20553;-75
2023/12/15 03:38:31;;;;;;;0.50;0.10;;;6.80;99.90;;;;;;4874743;29;20474;-75
2023/12/15 03:40:59;;;;;;;3.00;2.80;;;6.90;99.90;;;;;;4869407;29;20541;-75
2023/12/15 03:43:27;;;;;;;0.50;0.10;;;7.00;99.90;;;;;;4866024;29;20511;-75
2023/12/15 03:45:55;;;;;;;0.70;0.20;;;7.00;99.90;;;;;;4877631;29;20518;-76
2023/12/15 03:48:24;;;;;;;0.50;0.10;;;6.90;99.90;;;;;;4867426;29;20819;-76
2023/12/15 03:50:52;;;;;;;0.50;0.10;;;7.00;99.90;;;;;;4865424;29;20455;-76
2023/12/15 03:53:20;;;;;;;0.50;0.10;;;7.00;99.90;;;;;;4865626;29;20589;-75
2023/12/15 03:55:48;;;;;;;0.80;0.20;;;7.00;99.90;;;;;;4875468;29;20443;-76
2023/12/15 03:58:16;;;;;;;0.50;0.10;;;7.00;99.90;;;;;;4867752;29;20534;-77
2023/12/15 04:00:44;;;;;;;0.50;0.10;;;7.00;99.90;;;;;;4863326;29;20546;-77
2023/12/15 04:03:12;;;;;;;0.50;0.10;;;7.00;99.90;;;;;;4877134;29;20454;-75
2023/12/15 04:05:41;;;;;;;2.30;2.00;;;7.10;99.90;;;;;;4870829;29;20451;-75
2023/12/15 04:08:09;;;;;;;0.90;0.30;;;7.00;99.90;;;;;;4877842;29;20455;-76
2023/12/15 04:10:39;;;;;;;7.83;6.60;;;6.90;99.90;;;;;;4882518;29;20844;-76
2023/12/15 04:13:07;;;;;;;4.00;1.60;;;6.90;99.90;;;;;;4883696;29;20458;-76
2023/12/15 04:15:35;;;;;;;1.47;0.83;;;6.80;99.90;;;;;;4877035;29;20507;-77
2023/12/15 04:18:04;;;;;;;0.50;0.10;;;6.70;99.90;;;;;;4882432;29;20450;-76
2023/12/15 04:20:32;;;;;;;0.50;0.20;;;6.70;99.90;;;;;;4880590;29;21114;-78
2023/12/15 04:23:01;;;;;;;0.50;0.10;;;6.70;99.90;;;;;;4869402;29;20502;-76
2023/12/15 04:25:31;;;;;;;0.63;0.47;;;6.70;99.90;;;;;;4861285;29;20474;-76
2023/12/15 04:27:59;;;;;;;4.47;0.70;;;6.60;99.90;;;;;;4872247;29;21052;-76
2023/12/15 04:30:27;;;;;;;0.60;0.40;;;6.60;99.90;;;;;;4864070;29;20459;-77
2023/12/15 04:32:55;;;;;;;4.63;4.00;;;6.70;99.90;;;;;;4871939;29;20458;-76
2023/12/15 04:35:23;;;;;;;4.53;1.57;;;6.50;99.90;;;;;;4879831;29;20454;-76
2023/12/15 04:37:51;;;;;;;7.13;4.77;;;6.40;99.90;;;;;;4879391;29;20480;-76
2023/12/15 04:40:21;;;;;;;7.67;2.67;;;6.40;99.90;;;;;;4878932;29;20450;-76
2023/12/15 04:42:48;;;;;;;1.37;0.83;;;6.40;99.90;;;;;;4870675;29;20450;-75
2023/12/15 04:45:16;;;;;;;3.90;3.13;;;6.40;99.90;;;;;;4863977;29;20451;-76
2023/12/15 04:47:44;;;;;;;5.80;1.83;;;6.30;99.90;;;;;;4862209;29;20944;-76
2023/12/15 04:50:12;;;;;;;6.47;1.23;;;6.40;99.90;;;;;;4872262;29;20463;-75
2023/12/15 04:52:41;;;;;;;0.97;0.97;;;6.40;99.90;;;;;;4860180;29;20447;-76
2023/12/15 04:55:09;;;;;;;1.17;1.07;;;6.40;99.90;;;;;;4860188;29;20523;-76
2023/12/15 04:57:38;;;;;;;3.07;2.70;;;6.30;99.90;;;;;;4859415;29;20551;-74
2023/12/15 05:00:08;;;;;;;1.83;1.27;;;6.40;99.90;;;;;;4865291;29;20450;-77
2023/12/15 05:02:36;;;;;;;0.50;0.20;;;6.30;99.90;;;;;;4877929;29;20470;-75
2023/12/15 05:05:04;;;;;;;2.10;2.00;;;6.30;99.90;;;;;;4872972;29;20455;-76
2023/12/15 05:07:32;;;;;;;1.53;1.27;;;6.30;99.90;;;;;;4863101;29;20502;-75
2023/12/15 05:10:01;;;;;;;5.90;2.10;;;6.20;99.90;;;;;;4872272;29;20526;-76
2023/12/15 05:12:28;;;;;;;4.10;2.10;;;6.20;99.90;;;;;;4862473;29;20451;-76
2023/12/15 05:14:58;;;;;;;1.70;1.03;;;6.20;99.90;;;;;;4866571;29;20609;-76
2023/12/15 05:17:26;;;;;;;2.57;0.83;;;6.20;99.90;;;;;;4874416;29;20494;-77
2023/12/15 05:19:54;;;;;;;2.03;1.63;;;6.30;99.90;;;;;;4868466;29;20465;-76
2023/12/15 05:22:22;;;;;;;4.00;1.40;;;6.30;99.90;;;;;;4874179;29;20491;-76
2023/12/15 05:24:51;;;;;;;2.90;1.67;;;6.40;99.90;;;;;;4871459;29;20489;-76
2023/12/15 05:27:19;;;;;;;2.30;1.17;;;6.30;99.90;;;;;;4871480;29;20497;-76
2023/12/15 05:29:47;;;;;;;4.10;3.50;;;6.40;99.90;;;;;;4860123;29;20929;-76
2023/12/15 05:32:17;;;;;;;1.00;0.67;;;6.30;99.90;;;;;;4869660;29;20478;-76
2023/12/15 05:34:45;;;;;;;0.77;0.60;;;6.40;99.90;;;;;;4867724;29;20455;-76
2023/12/15 05:37:13;;;;;;;0.50;0.20;;;6.40;99.90;;;;;;4863718;29;20483;-76
2023/12/15 05:39:44;;;;;;;0.90;0.63;;;;;;;;;;4874945;29;20501;-76
2023/12/15 05:42:12;;;;;;;0.60;0.50;;;6.40;99.90;;;;;;4877456;29;20462;-76
2023/12/15 05:44:41;;;;;;;1.27;0.97;;;6.40;99.90;;;;;;4868760;29;20438;-76
2023/12/15 05:47:09;;;;;;;9.67;4.77;;;6.40;99.90;;;;;;4874086;29;20498;-75
2023/12/15 05:49:40;;;;;;;1.00;0.50;;;6.40;99.90;;;;;;4881041;29;20458;-76
2023/12/15 05:52:09;;;;;;;2.33;2.23;;;6.40;99.90;;;;;;4874306;29;20470;-77
2023/12/15 05:54:38;;;;;;;2.60;2.37;;;6.40;99.90;;;;;;4870282;29;20554;-75
2023/12/15 05:57:06;;;;;;;2.00;1.23;;;6.40;99.90;;;;;;4872487;29;20568;-75
2023/12/15 05:59:36;;;;;;;0.50;0.10;;;6.40;99.90;;;;;;4884765;29;20458;-75
2023/12/15 06:02:05;;;;;;;0.57;0.40;;;6.50;99.90;;;;;;4877660;29;20892;-76
2023/12/15 06:04:33;;;;;;;0.50;0.10;;;;;;;;;;4873524;29;20454;-76
2023/12/15 06:07:03;;;;;;;0.50;0.10;;;6.60;99.90;;;;;;4881070;29;20862;-75
2023/12/15 06:09:31;;;;;;;0.50;0.10;;;6.70;99.90;;;;;;4880934;29;20542;-76
2023/12/15 06:12:02;;;;;;;0.80;0.80;;;6.80;99.90;;;;;;4873597;29;20442;-75
2023/12/15 06:14:30;;;;;;;0.60;0.30;;;6.80;99.90;;;;;;4880706;29;20506;-75
2023/12/15 06:16:59;;;;;;;0.90;0.90;;;6.90;99.90;;;;;;4880520;29;20993;-75
2023/12/15 06:19:27;;;;;;;0.60;0.30;;;7.00;99.90;;;;;;4879106;29;20467;-77
2023/12/15 06:21:56;;;;;;;0.50;0.10;;;7.00;99.90;;;;;;4878273;29;20446;-76
2023/12/15 06:24:25;;;;;;;0.50;0.20;;;7.00;99.90;;;;;;4865342;29;20454;-76
2023/12/15 06:26:53;;;;;;;0.50;0.10;;;7.00;99.90;;;;;;4862546;29;20885;-76
2023/12/15 06:29:21;;;;;;;0.50;0.10;;;7.00;99.90;;;;;;4863804;29;20515;-77
2023/12/15 06:31:49;;;;;;;0.50;0.10;;;7.10;99.90;;;;;;4863897;29;20447;-76
2023/12/15 06:34:17;;;;;;;0.50;0.10;;;7.10;99.90;;;;;;4863321;29;20984;-76
2023/12/15 06:36:46;;;;;;;0.50;0.10;;;7.10;99.90;;;;;;4864147;29;20651;-76
2023/12/15 06:39:14;;;;;;;0.50;0.27;;;7.10;99.90;;;;;;4878696;29;20533;-76
2023/12/15 06:41:43;;;;;;;0.50;0.10;;;7.10;99.90;;;;;;4874422;29;20454;-77
2023/12/15 06:44:11;;;;;;;0.50;0.10;;;7.20;99.90;;;;;;4879324;29;20442;-78
2023/12/15 06:46:39;;;;;;;0.50;0.10;;;7.20;99.90;;;;;;4868331;29;20482;-75
2023/12/15 06:49:07;;;;;;;1.23;0.80;;;7.00;99.90;;;;;;4870715;29;20514;-77
2023/12/15 06:51:35;;;;;;;1.43;0.83;;;7.00;99.90;;;;;;4872363;29;20526;-77
2023/12/15 06:54:03;;;;;;;0.60;0.10;;;7.00;99.90;;;;;;4872933;29;20456;-77
2023/12/15 06:56:31;;;;;;;0.50;0.10;;;7.00;99.90;;;;;;4864403;29;20482;-77
2023/12/15 06:59:01;;;;;;;0.50;0.10;;;7.00;99.90;;;;;;4880651;29;20450;-75
2023/12/15 07:01:29;;;;;;;2.97;1.33;;;7.00;99.90;;;;;;4873958;29;20459;-75
2023/12/15 07:03:57;;;;;;;0.50;0.10;;;7.00;99.90;;;;;;4875797;29;20461;-77
2023/12/15 07:06:25;;;;;;;0.80;0.73;;;7.00;99.90;;;;;;4877588;29;20569;-75
2023/12/15 07:08:54;;;;;;;0.50;0.30;;;6.90;99.90;;;;;;4878257;29;20494;-76
2023/12/15 07:11:23;;;;;;;0.50;0.10;;;6.90;99.90;;;;;;4879514;29;20459;-77
2023/12/15 07:13:51;;;;;;;0.50;0.10;;;;;;;;;;4873288;29;20454;-76
2023/12/15 07:16:21;;;;;;;1.37;1.27;;;6.80;99.90;;;;;;4879249;29;20478;-76
2023/12/15 07:18:49;;;;;;;0.50;0.10;;;6.90;99.90;;;;;;4867806;29;20451;-75
2023/12/15 07:21:17;;;;;;;0.50;0.10;;;6.90;99.90;;;;;;4859734;29;20955;-76
2023/12/15 07:23:45;;;;;;;2.97;1.33;;;6.90;99.90;;;;;;4878002;29;20904;-75
2023/12/15 07:26:13;;;;;;;1.80;0.73;;;6.80;99.90;;;;;;4866255;29;20467;-76
2023/12/15 07:28:41;;;;;;;0.50;0.10;;;6.80;99.90;;;;;;4870781;29;21009;-77
2023/12/15 07:31:08;;;;;;;0.93;0.93;;;6.80;99.90;;;;;;4870300;29;20452;-76
2023/12/15 07:33:40;;;;;;;0.53;0.20;;;6.80;99.90;;;;;;4879863;29;20466;-76
2023/12/15 07:36:10;;;;;;;1.27;0.70;;;6.80;99.90;;;;;;4863866;29;20583;-74
2023/12/15 07:38:38;;;;;;;0.67;0.67;;;6.90;99.90;;;;;;4873200;29;20514;-76
2023/12/15 07:41:08;;;;;;;1.23;0.50;;;6.90;99.90;;;;;;4881072;29;20458;-77
2023/12/15 07:43:37;;;;;;;3.13;1.57;;;6.70;99.90;;;;;;4879680;29;20465;-75
2023/12/15 07:46:06;;;;;;;4.77;2.67;;;6.40;99.90;;;;;;4878377;29;20472;-75
2023/12/15 07:48:34;;;;;;;4.00;1.17;;;6.40;99.90;;;;;;4869393;29;20486;-77
2023/12/15 07:51:04;;;;;;;1.40;1.20;;;6.50;99.90;;;;;;4875842;29;20451;-77
2023/12/15 07:53:32;;;;;;;0.50;0.10;;;6.50;99.90;;;;;;4868048;29;20467;-76
2023/12/15 07:56:00;;;;;;;1.43;1.03;;;6.60;99.90;;;;;;4870956;29;20490;-76
2023/12/15 07:58:27;;;;;;;0.50;0.10;;;6.70;99.90;;;;;;4878793;29;20446;-75
2023/12/15 08:00:56;;;;;;;0.50;0.17;;;6.70;99.90;;;;;;4868378;29;20451;-77
2023/12/15 08:03:23;;;;;;;5.70;2.00;;;6.70;99.90;;;;;;4866901;29;20497;-76
2023/12/15 08:05:51;;;;;;;3.23;2.67;;;6.60;99.90;;;;;;4878808;29;20493;-75
2023/12/15 08:08:21;;;;;;;2.93;0.77;;;6.60;99.90;;;;;;4865638;29;20655;-76
2023/12/15 08:10:49;;;;;;;7.30;1.90;;;6.60;99.90;;;;;;4875312;29;20446;-76
2023/12/15 08:13:17;;;;;;;0.50;0.10;;;6.60;99.90;;;;;;4860677;29;20479;-77
2023/12/15 08:15:46;;;;;;;1.27;1.17;;;6.50;99.90;;;;;;4866309;29;20450;-75
2023/12/15 08:18:14;;;;;;;1.83;1.13;;;6.40;99.90;;;;;;4872628;29;20451;-76
2023/12/15 08:20:45;;;;;;;2.50;1.03;;;6.40;99.90;;;;;;4864285;29;20474;-75
2023/12/15 08:23:13;;;;;;;0.50;0.20;;;6.50;99.90;;;;;;4875164;29;20458;-76
2023/12/15 08:25:42;;;;;;;0.90;0.77;;;6.50;99.90;;;;;;4876421;29;20458;-76
2023/12/15 08:28:11;;;;;;;0.87;0.43;;;6.50;99.90;;;;;;4861114;29;20823;-77
2023/12/15 08:30:39;;;;;;;0.50;0.10;;;6.60;99.90;;;;;;4868958;29;20459;-77
2023/12/15 08:33:07;;;;;;;0.50;0.10;;;6.80;99.90;;;;;;4872440;29;20476;-77
2023/12/15 08:35:35;;;;;;;1.03;0.30;;;6.80;99.90;;;;;;4872563;29;20498;-76
2023/12/15 08:38:03;;;;;;;1.93;1.63;;;6.90;99.90;;;;;;4870993;29;20474;-75
2023/12/15 08:40:31;;;;;;;1.70;1.60;;;7.00;99.90;;;;;;4878684;29;20984;-76
2023/12/15 08:43:00;;;;;;;0.50;0.10;;;9.40;99.90;;;;;;4878680;29;20458;-76
2023/12/15 08:45:28;;;;;;;0.50;0.10;;;7.00;99.90;;;;;;4878614;29;20542;-75
2023/12/15 08:47:56;;;;;;;0.50;0.10;;;7.10;99.90;;;;;;4872473;29;20553;-76
2023/12/15 08:50:24;;;;;;;0.50;0.10;;;7.20;99.90;;;;;;4872357;29;20488;-76
2023/12/15 08:52:52;;;;;;;0.70;0.30;;;7.20;99.90;;;;;;4869755;29;20904;-76
2023/12/15 08:55:21;;;;;;;0.50;0.10;;;7.20;99.90;;;;;;4870819;29;20494;-75
2023/12/15 08:57:49;;;;;;;0.63;0.30;;;7.20;99.90;;;;;;4870411;29;20538;-74
2023/12/15 09:00:18;;;;;;;0.50;0.20;;;7.30;99.90;;;;;;4870362;29;20542;-76
2023/12/15 09:02:46;;;;;;;0.50;0.10;;;7.30;99.90;;;;;;4859311;29;20487;-76
2023/12/15 09:05:14;;;;;;;8.30;5.93;;;7.10;99.90;;;;;;4864059;29;20534;-76
2023/12/15 09:08:03;;;;;;;1.90;1.30;;;6.90;99.90;;;;;;4867031;29;20471;-75
2023/12/15 09:10:33;;;;;;;0.50;0.10;;;;;;;;;;4865997;29;20486;-76
2023/12/15 09:13:02;;;;;;;0.60;0.43;;;7.00;99.90;;;;;;4861743;29;20550;-76
2023/12/15 09:15:32;;;;;;;3.23;2.53;;;7.10;99.90;;;;;;4877557;29;20954;-76
2023/12/15 09:18:00;;;;;;;0.60;0.50;;;7.10;99.90;;;;;;4870294;29;20526;-76
2023/12/15 09:20:28;;;;;;;2.83;1.23;;;7.20;99.90;;;;;;4878624;29;20736;-75
2023/12/15 09:22:56;;;;;;;0.70;0.23;;;7.20;99.90;;;;;;4867747;29;20451;-75
2023/12/15 09:25:24;;;;;;;2.57;2.37;;;7.20;99.90;;;;;;4866985;29;20455;-75
2023/12/15 09:27:51;;;;;;;2.67;2.47;;;7.10;99.90;;;;;;4875764;29;20470;-75
2023/12/15 09:30:19;;;;;;;2.27;1.07;;;7.10;99.90;;;;;;4877318;29;20497;-75
2023/12/15 09:32:49;;;;;;;0.50;0.10;;;7.10;99.90;;;;;;4880505;29;20461;-76
2023/12/15 09:35:18;;;;;;;0.80;0.20;;;7.20;99.90;;;;;;4878056;29;20470;-75
2023/12/15 09:37:46;;;;;;;0.77;0.63;;;7.20;99.90;;;;;;4878036;29;20497;-75
2023/12/15 09:40:15;;;;;;;0.50;0.10;;;7.30;99.90;;;;;;4881243;29;20532;-75
2023/12/15 09:42:42;;;;;;;1.23;0.87;;;7.20;99.90;;;;;;4878551;29;20485;-76
2023/12/15 09:45:11;;;;;;;2.57;2.40;;;7.30;99.90;;;;;;4882398;29;20557;-76
2023/12/15 09:47:44;;;;;;;3.70;1.43;;;7.20;99.90;;;;;;4881559;29;21024;-76
2023/12/15 09:50:16;;;;;;;1.10;0.90;;;7.20;99.90;;;;;;4873965;29;20490;-75
2023/12/15 09:52:46;;;;;;;0.50;0.10;;;7.20;99.90;;;;;;4872577;29;20534;-75
2023/12/15 09:55:14;;;;;;;1.27;0.77;;;7.20;99.90;;;;;;4878263;29;20557;-76
2023/12/15 09:57:43;;;;;;;0.50;0.10;;;7.30;99.90;;;;;;4872699;29;20581;-75
2023/12/15 10:00:12;;;;;;;4.30;1.60;;;7.30;99.90;;;;;;4879345;29;20551;-75
2023/12/15 10:02:40;;;;;;;0.50;0.30;;;7.20;99.90;;;;;;4877543;29;20491;-75
2023/12/15 10:05:10;;;;;;;3.20;3.00;;;7.00;99.90;;;;;;4873020;29;20464;-76
2023/12/15 10:07:40;;;;;;;1.20;0.93;;;6.90;99.90;;;;;;4880921;29;20534;-75
2023/12/15 10:10:08;;;;;;;1.67;1.20;;;6.80;99.90;;;;;;4865603;29;20490;-76
2023/12/15 10:12:36;;;;;;;2.20;1.07;;;6.80;99.90;;;;;;4872679;29;20553;-76
2023/12/15 10:15:06;;;;;;;0.50;0.20;;;6.80;99.90;;;;;;4880262;29;20461;-77
2023/12/15 10:17:35;;;;;;;2.97;2.70;;;6.70;99.90;;;;;;4877876;29;20490;-76
2023/12/15 10:20:08;;;;;;;3.07;2.20;;;6.60;99.90;;;;;;4876059;29;20458;-77
2023/12/15 10:22:38;;;;;;;6.83;3.50;;;6.60;99.90;;;;;;4873154;29;20526;-75
2023/12/15 10:25:21;;;;;;;1.73;1.63;;;6.60;99.90;;;;;;4869868;29;20455;-75
2023/12/15 10:27:50;;;;;;;4.33;1.47;;;6.60;99.90;;;;;;4871198;29;20474;-74
2023/12/15 10:30:19;;;;;;;1.80;1.23;;;6.60;99.90;;;;;;4880866;29;20525;-77
2023/12/15 10:32:48;;;;;;;21.63;5.07;;;6.60;99.90;;;;;;4879499;29;20896;-74
2023/12/15 10:35:18;;;;;;;3.87;3.30;;;6.60;99.90;;;;;;4879007;29;20458;-76
2023/12/15 10:37:46;;;;;;;4.73;3.57;;;6.70;99.90;;;;;;4878956;29;20482;-75
2023/12/15 10:40:14;;;;;;;4.13;2.03;;;6.70;99.90;;;;;;4868458;29;20547;-75
2023/12/15 10:42:43;;;;;;;1.27;1.20;;;6.70;99.90;;;;;;4879215;29;20934;-75
2023/12/15 10:45:11;;;;;;;1.17;0.57;;;6.70;99.90;;;;;;4872247;29;20454;-74
2023/12/15 10:47:41;;;;;;;0.57;0.33;;;6.80;99.90;;;;;;4872269;29;20471;-76
2023/12/15 10:50:10;;;;;;;2.50;1.30;;;6.90;99.90;;;;;;4871330;29;20542;-75
2023/12/15 10:52:40;;;;;;;2.33;1.53;;;6.90;99.90;;;;;;4874023;29;20447;-76
2023/12/15 10:55:09;;;;;;;0.60;0.37;;;6.90;99.90;;;;;;4878372;29;20798;-75
2023/12/15 10:57:38;;;;;;;1.70;0.77;;;;;;;;;;4885520;29;20482;-77
2023/12/15 11:00:10;;;;;;;6.33;3.70;;;6.90;99.90;;;;;;4875153;29;20479;-76
2023/12/15 11:02:40;;;;;;;0.50;0.20;;;6.90;99.90;;;;;;4875419;29;20538;-76
2023/12/15 11:05:09;;;;;;;0.67;0.40;;;7.00;99.90;;;;;;4873199;29;20446;-75
2023/12/15 11:07:40;;;;;;;5.80;2.03;;;7.10;99.90;;;;;;4873230;29;20877;-76
2023/12/15 11:10:12;;;;;;;1.80;1.70;;;7.20;99.90;;;;;;4879346;29;20544;-73
2023/12/15 11:12:41;;;;;;;0.50;0.10;;;7.20;99.90;;;;;;4875679;29;20450;-76
2023/12/15 11:15:13;;;;;;;0.50;0.10;;;7.20;99.90;;;;;;4871884;29;20846;-76
2023/12/15 11:17:42;;;;;;;0.70;0.57;;;7.20;99.90;;;;;;4871798;29;20491;-76
2023/12/15 11:20:13;;;;;;;0.50;0.10;;;7.30;99.90;;;;;;4864192;29;20451;-75
2023/12/15 11:22:42;;;;;;;1.57;1.43;;;7.30;99.90;;;;;;4880068;29;20454;-76
2023/12/15 11:25:21;;;;;;;1.70;1.60;;;7.30;99.90;;;;;;4881245;29;20463;-76
2023/12/15 11:28:00;;;;;;;1.07;0.97;;;7.30;99.90;;;;;;4873431;29;21005;-76
2023/12/15 11:30:30;;;;;;;1.33;0.77;;;7.30;99.90;;;;;;4879408;29;21031;-76
2023/12/15 11:32:58;;;;;;;0.50;0.10;;;7.40;99.90;;;;;;4880932;29;20454;-76
2023/12/15 11:35:28;;;;;;;3.57;3.27;;;7.40;99.90;;;;;;4882132;29;20462;-76
2023/12/15 11:37:58;;;;;;;1.10;0.67;;;7.40;99.90;;;;;;4880999;29;21255;-76
2023/12/15 11:40:29;;;;;;;1.77;1.67;;;7.40;99.90;;;;;;4875191;29;21064;-76
2023/12/15 11:42:57;;;;;;;1.00;0.60;;;7.40;99.90;;;;;;4895049;29;20449;-75
2023/12/15 11:45:27;;;;;;;4.10;1.80;;;7.50;99.90;;;;;;4900584;29;20487;-75
2023/12/15 11:47:56;;;;;;;1.53;1.43;;;7.40;99.90;;;;;;4900123;29;20474;-75
2023/12/15 11:50:24;;;;;;;0.83;0.30;;;7.40;99.90;;;;;;4892985;29;20500;-75
2023/12/15 11:52:55;;;;;;;1.37;1.10;;;7.30;99.90;;;;;;4892790;29;20450;-76
2023/12/15 11:55:23;;;;;;;4.60;2.43;;;7.30;99.90;;;;;;4900172;29;20445;-75
2023/12/15 11:57:51;;;;;;;0.50;0.10;;;7.40;99.90;;;;;;4893701;29;20735;-77
2023/12/15 12:00:19;;;;;;;1.20;1.07;;;7.50;99.90;;;;;;4897280;29;20426;-76
2023/12/15 12:02:48;;;;;;;0.50;0.20;;;7.50;99.90;;;;;;4891870;29;20432;-76
2023/12/15 12:05:18;;;;;;;7.93;2.93;;;7.70;99.90;;;;;;4893055;29;20490;-76
2023/12/15 12:07:46;;;;;;;1.20;1.03;;;7.60;99.90;;;;;;4895529;29;20498;-76
2023/12/15 12:10:14;;;;;;;0.50;0.30;;;7.60;99.90;;;;;;4887216;29;20502;-76
2023/12/15 12:12:42;;;;;;;1.63;1.37;;;7.60;99.90;;;;;;4885546;29;20473;-76
2023/12/15 12:15:11;;;;;;;3.80;2.73;;;7.60;99.90;;;;;;4871528;29;20525;-77
2023/12/15 12:17:39;;;;;;;1.47;1.37;;;7.60;99.90;;;;;;4878873;29;20557;-76
2023/12/15 12:20:10;;;;;;;2.10;1.90;;;7.60;99.90;;;;;;4876285;29;20510;-77
2023/12/15 12:22:41;;;;;;;13.47;4.50;;;7.50;99.90;;;;;;4860470;29;20530;-76
2023/12/15 12:25:11;;;;;;;4.40;2.80;;;7.60;99.90;;;;;;4878131;29;20638;-76
2023/12/15 12:27:39;;;;;;;3.57;3.10;;;7.60;99.90;;;;;;4872121;29;20910;-76
2023/12/15 12:30:11;;;;;;;1.30;1.20;;;7.50;99.90;;;;;;4869888;29;20451;-76
2023/12/15 12:32:41;;;;;;;1.30;0.63;;;7.50;99.90;;;;;;4872336;29;20451;-77
2023/12/15 12:35:10;;;;;;;7.07;4.17;;;7.50;99.90;;;;;;4874391;29;20865;-77
2023/12/15 12:37:39;;;;;;;4.73;2.77;;;7.50;99.90;;;;;;4881971;29;20466;-76
2023/12/15 12:40:09;;;;;;;0.93;0.93;;;7.50;99.90;;;;;;4883647;29;21039;-77
2023/12/15 12:42:37;;;;;;;2.33;2.13;;;7.60;99.90;;;;;;4883688;29;20889;-77
2023/12/15 12:45:07;;;;;;;0.50;0.30;;;7.70;99.90;;;;;;4875085;29;20965;-77
2023/12/15 12:47:37;;;;;;;1.03;0.63;;;7.80;99.90;;;;;;4874937;29;20497;-77
2023/12/15 12:50:07;;;;;;;0.50;0.10;;;8.00;99.90;;;;;;4878922;29;20458;-75
2023/12/15 12:52:36;;;;;;;3.03;2.63;;;8.00;99.90;;;;;;4879982;29;20550;-75
2023/12/15 12:55:06;;;;;;;2.87;2.67;;;8.00;99.90;;;;;;4878526;29;20465;-76
2023/12/15 12:57:34;;;;;;;4.70;2.67;;;7.90;99.90;;;;;;4860338;29;20474;-76
2023/12/15 13:00:06;;;;;;;4.40;1.60;;;7.80;99.90;;;;;;4876541;29;20530;-75
2023/12/15 13:02:34;;;;;;;9.90;2.83;;;7.80;99.90;;;;;;4878058;29;20454;-76
2023/12/15 13:05:03;;;;;;;0.50;0.10;;;7.70;99.90;;;;;;4872097;29;20450;-77
2023/12/15 13:07:31;;;;;;;4.40;1.70;;;7.80;99.90;;;;;;4879744;29;20546;-77